Time,TemperatureF,DewpointF,PressureIn,WindDirection,WindDirectionDegrees,WindSpeedMPH,WindSpeedGustMPH,Humidity,HourlyPrecipIn,Conditions,Clouds,dailyrainin,SoftwareType,DateUTC
2013-06-01 00:14:00,79.3,73.0,29.68,ESE,117,6.0,16.0,81,0.00,,,0.00,weatherlink.com 1.10,2013-06-01 06:14:00,
2013-06-01 00:29:00,79.0,73.0,29.68,SE,137,1.0,12.0,82,0.00,,,0.00,weatherlink.com 1.10,2013-06-01 06:29:00,
2013-06-01 00:44:00,78.6,73.0,29.67,SW,228,5.0,11.0,82,0.00,,,0.00,weatherlink.com 1.10,2013-06-01 06:44:00,
2013-06-01 00:59:00,78.4,73.0,29.67,ESE,122,5.0,12.0,83,0.00,,,0.00,weatherlink.com 1.10,2013-06-01 06:59:00,
2013-06-01 01:14:00,78.1,73.0,29.67,ESE,119,4.0,11.0,83,0.00,,,0.00,weatherlink.com 1.10,2013-06-01 07:14:00,
2013-06-01 01:29:00,77.9,73.0,29.67,ESE,116,6.0,16.0,84,0.00,,,0.00,weatherlink.com 1.10,2013-06-01 07:29:00,
2013-06-01 01:44:00,77.7,73.0,29.67,SSW,194,2.0,10.0,84,0.00,,,0.00,weatherlink.com 1.10,2013-06-01 07:44:00,
2013-06-01 01:59:00,77.7,72.0,29.67,SSE,160,4.0,10.0,83,0.00,,,0.00,weatherlink.com 1.10,2013-06-01 07:59:00,
2013-06-01 02:14:00,77.8,72.0,29.67,SE,124,4.0,13.0,82,0.00,,,0.00,weatherlink.com 1.10,2013-06-01 08:14:00,
2013-06-01 02:29:00,77.9,72.0,29.67,SSE,150,1.0,11.0,82,0.00,,,0.00,weatherlink.com 1.10,2013-06-01 08:29:00,
2013-06-01 02:45:00,77.8,72.0,29.67,ESE,118,3.0,9.0,82,0.00,,,0.00,weatherlink.com 1.10,2013-06-01 08:45:00,
2013-06-01 03:00:00,77.7,72.0,29.67,East,96,6.0,10.0,83,0.00,,,0.00,weatherlink.com 1.10,2013-06-01 09:00:00,
2013-06-01 03:14:00,77.7,72.0,29.67,SSE,147,6.0,9.0,83,0.00,,,0.00,weatherlink.com 1.10,2013-06-01 09:14:00,
2013-06-01 03:29:00,77.6,72.0,29.68,ESE,113,2.0,8.0,83,0.00,,,0.00,weatherlink.com 1.10,2013-06-01 09:29:00,
2013-06-01 03:44:00,77.4,72.0,29.68,SE,144,1.0,9.0,83,0.00,,,0.00,weatherlink.com 1.10,2013-06-01 09:44:00,
2013-06-01 03:59:00,77.3,72.0,29.68,SW,233,1.0,9.0,83,0.00,,,0.00,weatherlink.com 1.10,2013-06-01 09:59:00,
2013-06-01 04:14:00,77.2,72.0,29.69,SSE,149,1.0,4.0,84,0.00,,,0.00,weatherlink.com 1.10,2013-06-01 10:14:00,
2013-06-01 04:29:00,77.2,72.0,29.69,SE,136,2.0,6.0,84,0.00,,,0.00,weatherlink.com 1.10,2013-06-01 10:29:00,
2013-06-01 04:44:00,77.2,72.0,29.69,East,101,2.0,7.0,83,0.00,,,0.00,weatherlink.com 1.10,2013-06-01 10:44:00,
2013-06-01 04:59:00,77.2,71.0,29.69,SSE,156,3.0,9.0,82,0.00,,,0.00,weatherlink.com 1.10,2013-06-01 10:59:00,
2013-06-01 05:14:00,77.1,72.0,29.69,SSE,153,0.0,8.0,83,0.00,,,0.00,weatherlink.com 1.10,2013-06-01 11:14:00,
2013-06-01 05:29:00,77.1,72.0,29.69,SSE,152,1.0,11.0,83,0.00,,,0.00,weatherlink.com 1.10,2013-06-01 11:29:00,
2013-06-01 05:44:00,76.9,71.0,29.69,SSW,195,6.0,8.0,82,0.00,,,0.00,weatherlink.com 1.10,2013-06-01 11:44:00,
2013-06-01 05:59:00,77.2,71.0,29.69,SE,124,4.0,7.0,82,0.00,,,0.00,weatherlink.com 1.10,2013-06-01 11:59:00,
2013-06-01 06:14:00,77.5,72.0,29.70,SE,142,3.0,8.0,82,0.00,,,0.00,weatherlink.com 1.10,2013-06-01 12:14:00,
2013-06-01 06:29:00,77.7,72.0,29.75,SW,232,2.0,6.0,82,0.00,,,0.00,weatherlink.com 1.10,2013-06-01 12:29:00,
2013-06-01 06:44:00,77.8,72.0,29.73,SE,128,2.0,4.0,82,0.00,,,0.00,weatherlink.com 1.10,2013-06-01 12:44:00,
2013-06-01 06:59:00,78.4,73.0,29.74,SSE,153,1.0,5.0,82,0.00,,,0.00,weatherlink.com 1.10,2013-06-01 12:59:00,
2013-06-01 07:14:00,79.4,72.0,29.75,SSW,193,1.0,9.0,79,0.00,,,0.00,weatherlink.com 1.10,2013-06-01 13:14:00,
2013-06-01 07:29:00,79.3,73.0,29.75,SSE,152,1.0,8.0,80,0.00,,,0.00,weatherlink.com 1.10,2013-06-01 13:29:00,
2013-06-01 07:44:00,79.3,73.0,29.75,SE,140,7.0,8.0,80,0.00,,,0.00,weatherlink.com 1.10,2013-06-01 13:44:00,
2013-06-01 07:59:00,79.6,73.0,29.74,SSE,155,2.0,6.0,80,0.00,,,0.00,weatherlink.com 1.10,2013-06-01 13:59:00,
2013-06-01 08:14:00,80.2,73.0,29.75,ESE,115,2.0,6.0,78,0.00,,,0.00,weatherlink.com 1.10,2013-06-01 14:14:00,
2013-06-01 08:29:00,80.1,73.0,29.77,WNW,287,2.0,9.0,78,0.00,,,0.00,weatherlink.com 1.10,2013-06-01 14:29:00,
2013-06-01 08:44:00,80.4,73.0,29.78,SW,222,8.0,9.0,78,0.00,,,0.00,weatherlink.com 1.10,2013-06-01 14:44:00,
2013-06-01 08:59:00,80.7,73.0,29.78,SSW,207,0.0,10.0,77,0.00,,,0.00,weatherlink.com 1.10,2013-06-01 14:59:00,
2013-06-01 09:14:00,81.4,73.0,29.79,South,187,7.0,11.0,75,0.00,,,0.00,weatherlink.com 1.10,2013-06-01 15:14:00,
2013-06-01 09:29:00,81.5,73.0,29.79,SW,233,2.0,11.0,74,0.00,,,0.00,weatherlink.com 1.10,2013-06-01 15:29:00,
2013-06-01 09:44:00,81.3,72.0,29.79,WSW,239,13.0,13.0,74,0.00,,,0.00,weatherlink.com 1.10,2013-06-01 15:44:00,
2013-06-01 10:00:00,81.5,73.0,29.79,SSE,152,4.0,8.0,74,0.00,,,0.00,weatherlink.com 1.10,2013-06-01 16:00:00,
2013-06-01 10:15:00,81.5,73.0,29.79,SSW,193,3.0,10.0,75,0.00,,,0.00,weatherlink.com 1.10,2013-06-01 16:15:00,
2013-06-01 10:30:00,82.1,74.0,29.79,South,184,2.0,4.0,75,0.00,,,0.00,weatherlink.com 1.10,2013-06-01 16:30:00,
2013-06-01 10:45:00,84.3,74.0,29.79,ESE,115,2.0,7.0,72,0.00,,,0.00,weatherlink.com 1.10,2013-06-01 16:45:00,
2013-06-01 11:00:00,85.2,75.0,29.79,South,186,4.0,7.0,71,0.00,,,0.00,weatherlink.com 1.10,2013-06-01 17:00:00,
2013-06-01 11:15:00,85.9,74.0,29.79,SE,130,7.0,11.0,68,0.00,,,0.00,weatherlink.com 1.10,2013-06-01 17:15:00,
2013-06-01 11:30:00,87.3,74.0,29.78,SSE,149,2.0,8.0,64,0.00,,,0.00,weatherlink.com 1.10,2013-06-01 17:30:00,
2013-06-01 11:45:00,88.1,74.0,29.78,WSW,243,7.0,13.0,64,0.00,,,0.00,weatherlink.com 1.10,2013-06-01 17:45:00,
2013-06-01 12:00:00,88.8,75.0,29.78,SSW,211,7.0,8.0,63,0.00,,,0.00,weatherlink.com 1.10,2013-06-01 18:00:00,
2013-06-01 12:15:00,89.8,74.0,29.77,ESE,119,7.0,9.0,60,0.00,,,0.00,weatherlink.com 1.10,2013-06-01 18:15:00,
2013-06-01 12:30:00,89.7,74.0,29.77,SSE,158,5.0,8.0,61,0.00,,,0.00,weatherlink.com 1.10,2013-06-01 18:30:00,
2013-06-01 12:45:00,88.6,74.0,29.77,South,177,3.0,8.0,62,0.00,,,0.00,weatherlink.com 1.10,2013-06-01 18:45:00,
2013-06-01 13:00:00,87.7,74.0,29.77,SSE,165,2.0,8.0,64,0.00,,,0.00,weatherlink.com 1.10,2013-06-01 19:00:00,
2013-06-01 13:15:00,87.3,74.0,29.77,SE,145,5.0,6.0,65,0.00,,,0.00,weatherlink.com 1.10,2013-06-01 19:15:00,
2013-06-01 13:30:00,88.2,74.0,29.77,SSE,165,4.0,10.0,62,0.00,,,0.00,weatherlink.com 1.10,2013-06-01 19:30:00,
2013-06-01 13:45:00,87.7,74.0,29.76,SSE,156,2.0,9.0,64,0.00,,,0.00,weatherlink.com 1.10,2013-06-01 19:45:00,
2013-06-01 14:00:00,88.0,74.0,29.77,SSW,208,3.0,7.0,63,0.00,,,0.00,weatherlink.com 1.10,2013-06-01 20:00:00,
2013-06-01 14:15:00,88.1,74.0,29.76,SSW,198,2.0,4.0,64,0.00,,,0.00,weatherlink.com 1.10,2013-06-01 20:15:00,
2013-06-01 14:30:00,89.3,76.0,29.76,WSW,240,3.0,6.0,64,0.00,,,0.00,weatherlink.com 1.10,2013-06-01 20:30:00,
2013-06-01 14:45:00,90.5,75.0,29.76,SSW,195,1.0,7.0,60,0.00,,,0.00,weatherlink.com 1.10,2013-06-01 20:45:00,
2013-06-01 15:00:00,89.9,75.0,29.76,SSW,194,3.0,6.0,61,0.00,,,0.00,weatherlink.com 1.10,2013-06-01 21:00:00,
2013-06-01 15:15:00,88.6,74.0,29.76,South,186,2.0,8.0,62,0.00,,,0.00,weatherlink.com 1.10,2013-06-01 21:15:00,
2013-06-01 15:30:00,88.7,74.0,29.75,SW,216,3.0,7.0,62,0.00,,,0.00,weatherlink.com 1.10,2013-06-01 21:30:00,
2013-06-01 15:45:00,87.2,74.0,29.75,West,262,2.0,8.0,64,0.00,,,0.00,weatherlink.com 1.10,2013-06-01 21:45:00,
2013-06-01 16:00:00,84.3,75.0,29.76,NNE,25,1.0,7.0,73,0.00,,,0.00,weatherlink.com 1.10,2013-06-01 22:00:00,
2013-06-01 16:15:00,82.1,75.0,29.76,NW,323,0.0,5.0,79,0.00,,,0.00,weatherlink.com 1.10,2013-06-01 22:15:00,
2013-06-01 16:30:00,80.7,76.0,29.76,NNW,339,0.0,7.0,84,0.00,,,0.00,weatherlink.com 1.10,2013-06-01 22:30:00,
2013-06-01 16:45:00,80.3,76.0,29.76,NNW,335,2.0,8.0,86,0.00,,,0.00,weatherlink.com 1.10,2013-06-01 22:45:00,
2013-06-01 17:00:00,80.5,76.0,29.77,NW,326,3.0,7.0,87,0.00,,,0.00,weatherlink.com 1.10,2013-06-01 23:00:00,
2013-06-01 17:15:00,80.0,75.0,29.77,NNE,13,1.0,8.0,85,0.00,,,0.00,weatherlink.com 1.10,2013-06-01 23:15:00,
2013-06-01 17:31:00,79.7,75.0,29.77,WNW,302,1.0,8.0,85,0.00,,,0.00,weatherlink.com 1.10,2013-06-01 23:31:00,
2013-06-01 17:45:00,80.2,75.0,29.77,NW,326,2.0,5.0,84,0.00,,,0.00,weatherlink.com 1.10,2013-06-01 23:45:00,
2013-06-01 18:00:00,80.7,75.0,29.77,NNE,26,4.0,6.0,83,0.00,,,0.00,weatherlink.com 1.10,2013-06-02 00:00:00,
2013-06-01 18:15:00,79.9,75.0,29.78,NNE,29,1.0,7.0,84,0.00,,,0.00,weatherlink.com 1.10,2013-06-02 00:15:00,
2013-06-01 18:30:00,79.1,74.0,29.78,NW,316,2.0,7.0,84,0.00,,,0.00,weatherlink.com 1.10,2013-06-02 00:30:00,
2013-06-01 18:45:00,78.3,74.0,29.78,NNW,329,0.0,6.0,85,0.00,,,0.00,weatherlink.com 1.10,2013-06-02 00:45:00,
2013-06-01 19:00:00,78.0,73.0,29.79,NNE,32,1.0,9.0,84,0.00,,,0.00,weatherlink.com 1.10,2013-06-02 01:00:00,
2013-06-01 19:15:00,77.3,72.0,29.80,NW,309,5.0,9.0,83,0.00,,,0.00,weatherlink.com 1.10,2013-06-02 01:15:00,
2013-06-01 19:31:00,76.9,71.0,29.80,WNW,298,4.0,7.0,83,0.00,,,0.00,weatherlink.com 1.10,2013-06-02 01:31:00,
2013-06-01 19:46:00,76.5,71.0,29.81,NW,320,2.0,14.0,83,0.00,,,0.00,weatherlink.com 1.10,2013-06-02 01:46:00,
2013-06-01 20:01:00,76.4,71.0,29.82,North,358,0.0,8.0,84,0.00,,,0.00,weatherlink.com 1.10,2013-06-02 02:01:00,
2013-06-01 20:16:00,76.2,71.0,29.82,North,4,0.0,10.0,83,0.00,,,0.00,weatherlink.com 1.10,2013-06-02 02:16:00,
2013-06-01 20:31:00,76.0,71.0,29.82,NNE,24,3.0,9.0,83,0.00,,,0.00,weatherlink.com 1.10,2013-06-02 02:31:00,
2013-06-01 20:46:00,75.9,70.0,29.83,NNE,29,1.0,9.0,83,0.00,,,0.00,weatherlink.com 1.10,2013-06-02 02:46:00,
2013-06-01 21:01:00,75.8,71.0,29.84,WNW,295,0.0,5.0,84,0.00,,,0.00,weatherlink.com 1.10,2013-06-02 03:01:00,
2013-06-01 21:16:00,75.6,71.0,29.84,NNW,339,3.0,7.0,84,0.00,,,0.00,weatherlink.com 1.10,2013-06-02 03:16:00,
2013-06-01 21:31:00,75.7,68.0,29.85,NNE,19,2.0,13.0,76,0.00,,,0.00,weatherlink.com 1.10,2013-06-02 03:31:00,
2013-06-01 21:46:00,75.3,70.0,29.86,North,351,0.0,5.0,84,0.00,,,0.00,weatherlink.com 1.10,2013-06-02 03:46:00,
2013-06-01 22:01:00,74.6,71.0,29.86,NNE,23,0.0,7.0,87,0.00,,,0.00,weatherlink.com 1.10,2013-06-02 04:01:00,
2013-06-01 22:16:00,74.4,71.0,29.86,NW,314,1.0,4.0,88,0.00,,,0.00,weatherlink.com 1.10,2013-06-02 04:16:00,
2013-06-01 22:31:00,74.3,71.0,29.86,North,9,2.0,4.0,90,0.00,,,0.00,weatherlink.com 1.10,2013-06-02 04:31:00,
2013-06-01 22:46:00,74.0,71.0,29.86,NNE,13,0.0,5.0,90,0.00,,,0.00,weatherlink.com 1.10,2013-06-02 04:46:00,
2013-06-01 23:01:00,73.6,71.0,29.85,NW,313,0.0,7.0,90,0.00,,,0.00,weatherlink.com 1.10,2013-06-02 05:01:00,
2013-06-01 23:16:00,73.3,71.0,29.86,NW,316,0.0,5.0,91,0.00,,,0.00,weatherlink.com 1.10,2013-06-02 05:16:00,
2013-06-01 23:31:00,73.2,71.0,29.87,NW,322,0.0,3.0,91,0.00,,,0.00,weatherlink.com 1.10,2013-06-02 05:31:00,
2013-06-01 23:46:00,73.2,70.0,29.87,NW,323,0.0,6.0,90,0.00,,,0.00,weatherlink.com 1.10,2013-06-02 05:46:00,